createdAt,value
2022-08-17T00:00:15.794Z,84.10
2022-08-17T00:03:06.816Z,84.15
2022-08-17T00:05:39.425Z,84.16
2022-08-17T00:08:07.445Z,84.13
2022-08-17T00:10:35.965Z,84.26
2022-08-17T00:13:07.776Z,84.43
2022-08-17T00:15:35.865Z,84.64
2022-08-17T00:18:04.302Z,84.66
2022-08-17T00:20:54.044Z,85.09
2022-08-17T00:23:22.176Z,85.77
2022-08-17T00:25:50.820Z,85.74
2022-08-17T00:28:19.784Z,85.51
2022-08-17T00:30:53.573Z,85.41
2022-08-17T00:33:24.359Z,85.48
2022-08-17T00:35:54.260Z,85.32
2022-08-17T00:38:23.052Z,85.31
2022-08-17T00:40:55.766Z,85.55
2022-08-17T00:43:29.441Z,85.88
2022-08-17T00:45:58.073Z,85.98
2022-08-17T00:48:26.270Z,86.02
2022-08-17T00:51:00.746Z,86.20
2022-08-17T00:53:31.244Z,86.37
2022-08-17T00:56:00.478Z,86.22
2022-08-17T00:58:35.750Z,86.20
2022-08-17T01:01:05.358Z,86.40
2022-08-17T01:03:34.377Z,86.45
2022-08-17T01:06:05.046Z,86.37
2022-08-17T01:08:33.660Z,86.36
2022-08-17T01:11:02.641Z,86.35
2022-08-17T01:13:38.210Z,86.26
2022-08-17T01:16:20.253Z,86.10
2022-08-17T01:18:50.625Z,86.08
2022-08-17T01:21:24.133Z,86.21
2022-08-17T01:23:53.455Z,86.46
2022-08-17T01:26:21.519Z,86.43
2022-08-17T01:28:53.922Z,86.50
2022-08-17T01:31:25.668Z,86.77
2022-08-17T01:33:53.942Z,87.04
2022-08-17T01:36:21.940Z,87.27
2022-08-17T01:38:49.995Z,87.43
2022-08-17T01:41:19.961Z,87.23
2022-08-17T01:43:50.707Z,87.08
2022-08-17T01:46:23.158Z,87.06
2022-08-17T01:48:51.509Z,88.18
2022-08-17T01:51:19.912Z,88.64
2022-08-17T01:53:51.718Z,88.43
2022-08-17T01:56:23.390Z,88.16
2022-08-17T01:58:51.878Z,88.08
2022-08-17T02:01:22.022Z,88.02
2022-08-17T02:03:56.284Z,88.15
2022-08-17T02:06:29.093Z,88.40
2022-08-17T02:09:01.894Z,88.38
2022-08-17T02:11:34.665Z,88.53
2022-08-17T02:14:04.102Z,88.64
2022-08-17T02:16:37.863Z,88.88
2022-08-17T02:19:07.944Z,88.84
2022-08-17T02:21:36.528Z,88.99
2022-08-17T02:24:05.516Z,89.25
2022-08-17T02:26:34.919Z,89.45
2022-08-17T02:29:04.019Z,89.31
2022-08-17T02:31:32.310Z,89.43
2022-08-17T02:34:04.750Z,89.49
2022-08-17T02:36:34.287Z,89.49
2022-08-17T02:39:03.283Z,89.67
2022-08-17T02:41:31.289Z,89.72
2022-08-17T02:44:00.907Z,90.00
2022-08-17T02:46:29.968Z,90.27
2022-08-17T02:48:58.037Z,90.31
2022-08-17T02:51:26.312Z,90.21
2022-08-17T02:54:35.597Z,90.28
2022-08-17T02:56:42.316Z,90.47
2022-08-17T02:59:11.586Z,90.49
2022-08-17T03:01:39.645Z,90.50
2022-08-17T03:04:07.815Z,90.56
2022-08-17T03:06:35.899Z,90.50
2022-08-17T03:09:04.285Z,90.53
2022-08-17T03:11:32.705Z,90.40
2022-08-17T03:14:00.656Z,90.36
2022-08-17T03:16:29.958Z,90.60
2022-08-17T03:18:58.020Z,91.07
2022-08-17T03:21:25.959Z,91.25
2022-08-17T03:23:54.517Z,91.30
2022-08-17T03:26:22.747Z,91.69
2022-08-17T03:28:50.742Z,91.92
2022-08-17T03:31:20.661Z,91.94
2022-08-17T03:33:50.021Z,91.90
2022-08-17T03:36:17.992Z,91.84
2022-08-17T03:38:45.968Z,91.83
2022-08-17T03:41:14.554Z,91.92
2022-08-17T03:43:42.536Z,91.66
2022-08-17T03:46:35.008Z,91.36
2022-08-17T03:49:24.252Z,91.16
2022-08-17T03:52:10.010Z,90.93
2022-08-17T03:54:56.002Z,90.78
2022-08-17T03:57:24.616Z,90.67
2022-08-17T03:59:52.848Z,90.41
2022-08-17T04:02:24.680Z,90.12
2022-08-17T04:04:54.334Z,89.85
2022-08-17T04:07:24.364Z,89.62
2022-08-17T04:09:53.269Z,89.41
2022-08-17T04:12:22.923Z,89.34
2022-08-17T04:14:52.827Z,89.20
2022-08-17T04:17:24.171Z,88.98
2022-08-17T04:19:53.867Z,88.80
2022-08-17T04:22:31.850Z,88.54
2022-08-17T04:25:03.458Z,88.29
2022-08-17T04:27:31.754Z,87.69
2022-08-17T04:29:59.806Z,87.42
2022-08-17T04:33:05.526Z,86.86
2022-08-17T04:35:20.743Z,85.82
2022-08-17T04:37:48.701Z,84.60
2022-08-17T04:40:35.246Z,83.44
2022-08-17T04:43:05.094Z,81.75
2022-08-17T04:45:33.248Z,80.18
2022-08-17T04:48:01.812Z,78.52
2022-08-17T04:50:31.198Z,77.29
2022-08-17T04:52:59.463Z,76.21
2022-08-17T04:55:27.732Z,74.53
2022-08-17T04:57:55.791Z,73.01
2022-08-17T05:00:25.935Z,71.09
2022-08-17T05:02:56.188Z,69.61
2022-08-17T05:05:26.255Z,68.41
2022-08-17T05:07:56.898Z,67.85
2022-08-17T05:10:25.706Z,67.54
2022-08-17T05:12:59.471Z,67.31
2022-08-17T05:15:28.368Z,66.79
2022-08-17T05:18:01.444Z,66.07
2022-08-17T05:20:30.109Z,65.52
2022-08-17T05:23:01.819Z,65.15
2022-08-17T05:25:34.440Z,64.54
2022-08-17T05:28:05.454Z,63.37
2022-08-17T05:30:35.665Z,61.99
2022-08-17T05:33:05.419Z,60.93
2022-08-17T05:35:36.020Z,60.63
2022-08-17T05:38:05.787Z,60.12
2022-08-17T05:40:33.866Z,60.22
2022-08-17T05:43:06.817Z,60.24
2022-08-17T05:45:54.741Z,59.55
2022-08-17T05:48:39.413Z,58.32
2022-08-17T05:51:44.322Z,57.06
2022-08-17T05:54:30.038Z,55.97
2022-08-17T05:57:13.360Z,54.16
2022-08-17T05:59:48.507Z,52.54
2022-08-17T06:02:21.976Z,50.84
2022-08-17T06:05:13.827Z,49.33
2022-08-17T06:07:46.929Z,48.58
2022-08-17T06:10:24.181Z,48.88
2022-08-17T06:13:00.017Z,47.88
2022-08-17T06:15:32.183Z,46.97
2022-08-17T06:18:03.599Z,46.57
2022-08-17T06:20:44.797Z,45.72
2022-08-17T06:23:15.632Z,44.29
2022-08-17T06:25:49.234Z,43.76
2022-08-17T06:28:22.398Z,43.04
2022-08-17T06:30:58.622Z,42.02
2022-08-17T06:33:32.098Z,42.67
2022-08-17T06:36:09.303Z,41.69
2022-08-17T06:38:44.628Z,41.04
2022-08-17T06:41:19.752Z,41.16
2022-08-17T06:43:56.218Z,41.21
2022-08-17T06:46:27.461Z,41.33
2022-08-17T06:49:07.917Z,41.61
2022-08-17T06:51:39.494Z,41.45
2022-08-17T06:54:10.414Z,40.99
2022-08-17T06:56:53.780Z,40.80
2022-08-17T06:59:26.218Z,40.94
2022-08-17T07:02:01.281Z,40.69
2022-08-17T07:04:32.204Z,40.67
2022-08-17T07:07:24.043Z,40.02
2022-08-17T07:12:25.677Z,39.22
2022-08-17T07:14:55.507Z,39.19
2022-08-17T07:17:46.497Z,38.89
2022-08-17T07:20:15.973Z,38.66
2022-08-17T07:22:57.769Z,38.36
2022-08-17T07:28:04.254Z,37.87
2022-08-17T07:30:45.840Z,37.57
2022-08-17T07:33:17.773Z,37.19
2022-08-17T07:35:48.330Z,38.00
2022-08-17T07:38:25.069Z,36.93
2022-08-17T07:41:02.493Z,36.98
2022-08-17T07:43:33.963Z,36.59
2022-08-17T07:46:35.070Z,36.32
2022-08-17T07:49:26.078Z,35.65
2022-08-17T07:52:24.950Z,35.49
2022-08-17T07:54:54.467Z,35.89
2022-08-17T07:57:35.253Z,35.20
2022-08-17T08:00:29.177Z,35.83
2022-08-17T08:03:18.492Z,35.35
2022-08-17T08:05:55.940Z,34.45
2022-08-17T08:08:31.460Z,34.59
2022-08-17T08:11:03.554Z,35.92
2022-08-17T08:13:32.487Z,35.59
2022-08-17T08:16:24.174Z,35.13
2022-08-17T08:18:56.862Z,35.52
2022-08-17T08:21:39.461Z,34.87
2022-08-17T08:24:22.581Z,34.41
2022-08-17T08:26:56.315Z,33.54
2022-08-17T08:29:31.202Z,35.09
2022-08-17T08:32:08.685Z,36.33
2022-08-17T08:35:00.703Z,36.29
2022-08-17T08:37:42.928Z,36.20
2022-08-17T08:40:24.765Z,37.43
2022-08-17T08:42:57.952Z,36.21
2022-08-17T08:45:30.503Z,35.35
2022-08-17T08:48:22.956Z,34.69
2022-08-17T08:51:05.191Z,33.78
2022-08-17T08:53:36.929Z,33.67
2022-08-17T08:56:08.065Z,33.38
2022-08-17T08:58:43.660Z,33.68
2022-08-17T09:01:19.992Z,33.28
2022-08-17T09:06:49.903Z,31.71
2022-08-17T09:09:25.244Z,32.12
2022-08-17T09:12:03.492Z,32.71
2022-08-17T09:14:46.707Z,33.12
2022-08-17T09:17:19.168Z,33.48
2022-08-17T09:19:49.440Z,33.16
2022-08-17T09:22:25.484Z,33.21
2022-08-17T09:24:56.973Z,32.88
2022-08-17T09:27:28.911Z,32.77
2022-08-17T09:30:00.324Z,33.23
2022-08-17T09:32:34.569Z,32.81
2022-08-17T09:35:09.190Z,33.08
2022-08-17T09:37:54.871Z,32.64
2022-08-17T09:40:26.031Z,32.93
2022-08-17T09:42:57.388Z,34.33
2022-08-17T09:45:31.359Z,33.94
2022-08-17T09:48:04.941Z,32.58
2022-08-17T09:51:03.335Z,31.58
2022-08-17T09:53:31.558Z,33.03
2022-08-17T09:56:10.250Z,33.66
2022-08-17T09:59:04.895Z,33.09
2022-08-17T10:01:40.032Z,32.60
2022-08-17T10:04:29.312Z,33.32
2022-08-17T10:07:04.406Z,32.54
2022-08-17T10:09:40.749Z,32.50
2022-08-17T10:12:20.330Z,32.90
2022-08-17T10:14:56.058Z,32.16
2022-08-17T10:17:29.236Z,32.13
2022-08-17T10:20:01.889Z,32.42
2022-08-17T10:22:54.808Z,32.15
2022-08-17T10:25:56.722Z,31.47
2022-08-17T10:28:30.077Z,30.34
2022-08-17T10:31:30.913Z,30.68
2022-08-17T10:34:00.038Z,32.35
2022-08-17T10:36:37.999Z,33.57
2022-08-17T10:39:13.477Z,32.78
2022-08-17T10:41:46.703Z,32.66
2022-08-17T10:44:38.017Z,32.47
2022-08-17T10:47:11.305Z,32.04
2022-08-17T10:49:47.446Z,32.44
2022-08-17T10:52:49.929Z,32.63
2022-08-17T10:55:21.161Z,32.81
2022-08-17T10:57:50.641Z,32.35
2022-08-17T11:01:08.942Z,31.08
2022-08-17T11:03:37.040Z,30.71
2022-08-17T11:06:15.893Z,31.44
2022-08-17T11:08:58.954Z,31.91
2022-08-17T11:11:54.861Z,32.34
2022-08-17T11:14:39.126Z,32.02
2022-08-17T11:17:22.647Z,32.10
2022-08-17T11:20:14.117Z,30.95
2022-08-17T11:23:04.290Z,31.35
2022-08-17T11:25:39.172Z,31.62
2022-08-17T11:28:15.162Z,32.78
2022-08-17T11:30:48.568Z,33.44
2022-08-17T11:33:52.484Z,33.86
2022-08-17T11:38:58.794Z,35.15
2022-08-17T11:41:31.554Z,35.98
2022-08-17T11:44:15.647Z,35.73
2022-08-17T11:47:13.465Z,36.36
2022-08-17T11:50:11.550Z,36.30
2022-08-17T11:52:42.326Z,36.61
2022-08-17T11:55:52.795Z,36.39
2022-08-17T11:58:38.457Z,36.32
2022-08-17T12:01:07.319Z,36.65
2022-08-17T12:03:55.374Z,36.20
2022-08-17T12:06:33.413Z,36.18
2022-08-17T12:09:06.249Z,35.85
2022-08-17T12:12:13.351Z,36.85
2022-08-17T12:17:39.365Z,36.05
2022-08-17T12:20:17.597Z,35.60
2022-08-17T12:22:56.559Z,34.77
2022-08-17T12:25:32.933Z,35.01
2022-08-17T12:28:06.015Z,35.61
2022-08-17T12:30:37.382Z,35.23
2022-08-17T12:33:13.334Z,35.80
2022-08-17T12:35:59.663Z,35.54
2022-08-17T12:38:32.251Z,34.79
2022-08-17T12:41:23.251Z,35.19
2022-08-17T12:44:02.255Z,35.57
2022-08-17T12:46:34.885Z,35.97
2022-08-17T12:49:27.413Z,35.44
2022-08-17T12:52:04.202Z,35.33
2022-08-17T12:54:40.151Z,35.60
2022-08-17T12:57:13.535Z,35.81
2022-08-17T12:59:45.249Z,36.05
2022-08-17T13:02:31.221Z,36.32
2022-08-17T13:05:00.910Z,36.76
2022-08-17T13:07:36.330Z,36.51
2022-08-17T13:10:05.452Z,36.66
2022-08-17T13:12:36.279Z,35.98
2022-08-17T13:15:04.920Z,36.03
2022-08-17T13:17:36.638Z,35.70
2022-08-17T13:20:06.372Z,35.51
2022-08-17T13:22:34.510Z,34.92
2022-08-17T13:25:05.504Z,35.13
2022-08-17T13:27:34.315Z,34.92
2022-08-17T13:30:05.585Z,34.65
2022-08-17T13:32:43.595Z,35.09
2022-08-17T13:35:38.915Z,34.82
2022-08-17T13:38:10.412Z,34.28
2022-08-17T13:40:44.725Z,34.48
2022-08-17T13:43:13.002Z,34.25
2022-08-17T13:45:51.130Z,33.93
2022-08-17T13:48:32.087Z,33.73
2022-08-17T13:51:31.351Z,32.96
2022-08-17T13:54:03.166Z,33.67
2022-08-17T13:56:38.185Z,33.08
2022-08-17T13:59:09.663Z,33.98
2022-08-17T14:01:40.139Z,34.47
2022-08-17T14:04:11.357Z,35.00
2022-08-17T14:06:54.950Z,35.29
2022-08-17T14:09:25.755Z,34.81
2022-08-17T14:11:55.110Z,34.04
2022-08-17T14:14:24.162Z,34.32
2022-08-17T14:16:52.519Z,34.30
2022-08-17T14:19:22.755Z,34.13
2022-08-17T14:21:51.128Z,34.26
2022-08-17T14:24:23.893Z,34.08
2022-08-17T14:26:53.049Z,34.42
2022-08-17T14:29:21.521Z,34.10
2022-08-17T14:31:53.318Z,34.37
2022-08-17T14:34:24.784Z,34.80
2022-08-17T14:36:53.156Z,34.47
2022-08-17T14:39:21.335Z,34.47
2022-08-17T14:41:49.489Z,34.61
2022-08-17T14:44:17.629Z,34.81
2022-08-17T14:46:46.110Z,34.42
2022-08-17T14:49:15.620Z,35.08
2022-08-17T14:51:45.000Z,34.89
2022-08-17T14:54:33.026Z,35.36
2022-08-17T14:57:24.897Z,35.65
2022-08-17T14:59:53.412Z,35.27
2022-08-17T15:02:29.796Z,35.21
2022-08-17T15:05:02.536Z,35.41
2022-08-17T15:07:31.886Z,35.87
2022-08-17T15:10:01.587Z,35.95
2022-08-17T15:12:33.714Z,36.18
2022-08-17T15:15:04.644Z,36.43
2022-08-17T15:17:54.960Z,35.98
2022-08-17T15:20:23.925Z,35.51
2022-08-17T15:22:55.069Z,35.67
2022-08-17T15:25:24.236Z,36.22
2022-08-17T15:27:52.786Z,36.94
2022-08-17T15:30:21.223Z,37.18
2022-08-17T15:32:54.438Z,37.22
2022-08-17T15:35:27.985Z,36.95
2022-08-17T15:38:03.521Z,37.21
2022-08-17T15:40:37.036Z,36.07
2022-08-17T15:43:06.461Z,35.51
2022-08-17T15:45:35.236Z,36.27
2022-08-17T15:48:03.484Z,36.33
2022-08-17T15:50:31.789Z,36.73
2022-08-17T15:53:02.158Z,36.61
2022-08-17T15:55:32.076Z,36.72
2022-08-17T15:58:00.340Z,36.50
2022-08-17T16:00:29.408Z,36.62
2022-08-17T16:03:45.549Z,36.69
2022-08-17T16:05:47.966Z,37.13
2022-08-17T16:08:20.927Z,37.56
2022-08-17T16:10:50.110Z,37.54
2022-08-17T16:13:19.730Z,37.89
2022-08-17T16:15:56.553Z,38.06
2022-08-17T16:18:26.636Z,38.22
2022-08-17T16:20:55.046Z,38.34
2022-08-17T16:23:24.845Z,38.75
2022-08-17T16:25:54.402Z,39.01
2022-08-17T16:28:35.597Z,39.07
2022-08-17T16:31:07.991Z,39.17
2022-08-17T16:33:37.682Z,39.47
2022-08-17T16:36:06.161Z,39.65
2022-08-17T16:38:35.865Z,40.03
2022-08-17T16:41:04.492Z,39.57
2022-08-17T16:43:32.548Z,39.65
2022-08-17T16:46:01.721Z,39.67
2022-08-17T16:48:29.996Z,39.79
2022-08-17T16:51:04.193Z,39.81
2022-08-17T16:53:32.591Z,39.73
2022-08-17T16:56:01.956Z,39.84
2022-08-17T16:58:30.149Z,39.88
2022-08-17T17:00:59.729Z,40.18
2022-08-17T17:03:28.806Z,40.10
2022-08-17T17:06:07.272Z,40.24
2022-08-17T17:08:42.045Z,39.93
2022-08-17T17:11:24.612Z,40.29
2022-08-17T17:13:57.867Z,40.37
2022-08-17T17:16:32.501Z,40.52
2022-08-17T17:19:11.129Z,40.82
2022-08-17T17:21:45.376Z,40.74
2022-08-17T17:24:16.797Z,40.68
2022-08-17T17:27:08.590Z,41.08
2022-08-17T17:29:47.134Z,40.91
2022-08-17T17:32:20.924Z,41.14
2022-08-17T17:34:51.900Z,41.22
2022-08-17T17:37:24.379Z,41.28
2022-08-17T17:39:54.296Z,41.15
2022-08-17T17:42:28.200Z,41.26
2022-08-17T17:45:05.901Z,41.08
2022-08-17T17:47:34.559Z,40.97
2022-08-17T17:50:03.914Z,41.34
2022-08-17T17:52:37.819Z,40.86
2022-08-17T17:55:13.156Z,41.22
2022-08-17T17:57:51.170Z,41.38
2022-08-17T18:00:23.462Z,41.69
2022-08-17T18:03:02.273Z,41.92
2022-08-17T18:05:46.561Z,42.08
2022-08-17T18:08:34.146Z,42.65
2022-08-17T18:11:14.626Z,42.62
2022-08-17T18:14:04.387Z,42.23
2022-08-17T18:16:33.096Z,42.52
2022-08-17T18:19:01.463Z,42.66
2022-08-17T18:21:36.289Z,42.96
2022-08-17T18:24:07.741Z,43.28
2022-08-17T18:26:40.121Z,43.80
2022-08-17T18:29:23.851Z,44.03
2022-08-17T18:32:13.692Z,44.58
2022-08-17T18:34:47.645Z,44.97
2022-08-17T18:37:32.864Z,45.57
2022-08-17T18:40:24.505Z,46.24
2022-08-17T18:42:59.617Z,47.00
2022-08-17T18:45:35.399Z,47.21
2022-08-17T18:48:03.510Z,47.88
2022-08-17T18:50:39.428Z,48.37
2022-08-17T18:53:38.771Z,48.41
2022-08-17T18:56:18.208Z,48.22
2022-08-17T18:58:51.870Z,48.25
2022-08-17T19:01:22.259Z,48.64
2022-08-17T19:04:28.356Z,48.54
2022-08-17T19:07:12.543Z,49.02
2022-08-17T19:09:46.552Z,48.94
2022-08-17T19:12:27.112Z,49.09
2022-08-17T19:14:57.230Z,48.97
2022-08-17T19:17:32.765Z,48.95
2022-08-17T19:20:03.867Z,49.24
2022-08-17T19:22:43.779Z,49.44
2022-08-17T19:25:16.252Z,49.77
2022-08-17T19:27:50.090Z,49.99
2022-08-17T19:30:20.263Z,50.18
2022-08-17T19:32:50.396Z,51.14
2022-08-17T19:35:20.206Z,51.46
2022-08-17T19:37:54.042Z,52.16
2022-08-17T19:43:24.946Z,52.39
2022-08-17T19:46:03.862Z,52.39
2022-08-17T19:48:40.956Z,52.55
2022-08-17T19:51:11.724Z,52.46
2022-08-17T19:54:04.373Z,52.81
2022-08-17T19:56:37.514Z,52.99
2022-08-17T19:59:12.981Z,53.09
2022-08-17T20:01:46.741Z,53.46
2022-08-17T20:04:22.279Z,53.84
2022-08-17T20:06:50.470Z,53.71
2022-08-17T20:09:22.422Z,53.97
2022-08-17T20:11:54.110Z,53.91
2022-08-17T20:14:25.654Z,54.26
2022-08-17T20:16:54.037Z,54.08
2022-08-17T20:19:25.669Z,54.41
2022-08-17T20:21:55.906Z,54.83
2022-08-17T20:24:29.321Z,55.17
2022-08-17T20:26:59.814Z,55.05
2022-08-17T20:29:39.640Z,55.15
2022-08-17T20:32:16.317Z,54.96
2022-08-17T20:34:47.708Z,54.60
2022-08-17T20:37:31.394Z,54.20
2022-08-17T20:40:21.317Z,54.48
2022-08-17T20:42:49.368Z,54.45
2022-08-17T20:45:49.824Z,54.69
2022-08-17T20:48:36.938Z,54.75
2022-08-17T20:51:29.579Z,55.10
2022-08-17T20:54:08.476Z,55.12
2022-08-17T20:56:53.710Z,55.56
2022-08-17T21:00:00.593Z,56.97
2022-08-17T21:02:29.581Z,57.42
2022-08-17T21:05:27.516Z,57.89
2022-08-17T21:08:01.464Z,57.62
2022-08-17T21:10:35.593Z,57.60
2022-08-17T21:13:48.613Z,57.30
2022-08-17T21:16:40.484Z,56.84
2022-08-17T21:19:22.833Z,56.69
2022-08-17T21:22:01.950Z,56.66
2022-08-17T21:24:44.462Z,56.70
2022-08-17T21:27:23.436Z,57.03
2022-08-17T21:29:53.867Z,57.19
2022-08-17T21:32:29.529Z,57.33
2022-08-17T21:35:24.761Z,57.36
2022-08-17T21:37:57.428Z,57.42
2022-08-17T21:40:28.969Z,57.27
2022-08-17T21:42:59.963Z,57.20
2022-08-17T21:45:31.215Z,57.21
2022-08-17T21:48:13.931Z,57.42
2022-08-17T21:50:44.150Z,57.56
2022-08-17T21:53:14.543Z,57.74
2022-08-17T21:55:43.890Z,57.95
2022-08-17T21:58:24.370Z,58.19
2022-08-17T22:01:11.610Z,58.43
2022-08-17T22:03:39.968Z,58.56
2022-08-17T22:06:22.397Z,58.67
2022-08-17T22:09:12.724Z,58.80
2022-08-17T22:11:55.220Z,58.88
2022-08-17T22:14:25.653Z,59.05
2022-08-17T22:17:14.592Z,59.11
2022-08-17T22:19:44.595Z,59.27
2022-08-17T22:22:26.321Z,59.49
2022-08-17T22:24:57.456Z,59.63
2022-08-17T22:27:55.784Z,59.92
2022-08-17T22:30:31.130Z,60.18
2022-08-17T22:32:59.449Z,60.24
2022-08-17T22:35:34.740Z,60.29
2022-08-17T22:38:33.759Z,60.24
2022-08-17T22:41:25.541Z,60.17
2022-08-17T22:43:57.416Z,60.21
2022-08-17T22:46:26.195Z,60.17
2022-08-17T22:48:57.625Z,60.19
2022-08-17T22:51:28.797Z,60.18
2022-08-17T22:54:17.707Z,60.40
2022-08-17T22:57:15.183Z,60.43
2022-08-17T22:59:50.694Z,60.55
2022-08-17T23:02:25.123Z,60.75
2022-08-17T23:04:57.371Z,60.98
2022-08-17T23:07:25.306Z,61.18
2022-08-17T23:09:54.102Z,61.41
2022-08-17T23:12:26.284Z,61.57
2022-08-17T23:15:00.427Z,61.79
2022-08-17T23:17:33.905Z,61.85
2022-08-17T23:20:06.135Z,62.00
2022-08-17T23:22:34.191Z,62.22
2022-08-17T23:25:03.195Z,62.31
2022-08-17T23:27:31.799Z,62.32
2022-08-17T23:30:01.215Z,62.36
2022-08-17T23:32:29.208Z,62.36
2022-08-17T23:34:59.114Z,62.57
2022-08-17T23:37:27.583Z,62.84
2022-08-17T23:39:55.564Z,63.10
2022-08-17T23:42:23.770Z,63.38
2022-08-17T23:44:51.764Z,63.72
2022-08-17T23:47:21.272Z,64.08
2022-08-17T23:49:49.285Z,64.27
2022-08-17T23:52:22.738Z,64.35
2022-08-17T23:54:50.697Z,64.46
2022-08-17T23:57:20.405Z,64.71
